createdAt,value
2018-09-15T00:00:28.877Z,95.51
2018-09-15T00:01:28.875Z,94.84
2018-09-15T00:02:28.875Z,95.51
2018-09-15T00:03:28.870Z,95.51
2018-09-15T00:04:28.872Z,95.51
2018-09-15T00:05:28.875Z,95.36
2018-09-15T00:06:28.874Z,95.56
2018-09-15T00:07:28.868Z,95.36
2018-09-15T00:08:28.869Z,95.36
2018-09-15T00:09:28.872Z,95.84
2018-09-15T00:10:28.867Z,95.56
2018-09-15T00:11:28.869Z,96.03
2018-09-15T00:12:28.865Z,96.03
2018-09-15T00:13:28.864Z,96.03
2018-09-15T00:14:28.864Z,96.22
2018-09-15T00:15:28.860Z,96.70
2018-09-15T00:16:28.860Z,96.89
2018-09-15T00:17:28.859Z,96.42
2018-09-15T00:18:28.859Z,97.38
2018-09-15T00:19:28.978Z,97.28
2018-09-15T00:20:28.863Z,97.42
2018-09-15T00:21:28.854Z,97.23
2018-09-15T00:22:28.852Z,97.52
2018-09-15T00:23:28.852Z,97.61
2018-09-15T00:24:28.856Z,97.80
2018-09-15T00:25:28.850Z,98.00
2018-09-15T00:26:28.847Z,98.28
2018-09-15T00:27:28.852Z,98.57
2018-09-15T00:28:28.848Z,98.38
2018-09-15T00:29:28.843Z,98.76
2018-09-15T00:30:28.846Z,98.00
2018-09-15T00:31:28.843Z,99.19
2018-09-15T00:32:28.840Z,99.29
2018-09-15T00:33:28.839Z,99.00
2018-09-15T00:34:28.846Z,99.76
2018-09-15T00:35:28.840Z,99.86
2018-09-15T00:36:28.838Z,99.99
2018-09-15T00:37:28.837Z,99.99
2018-09-15T00:38:28.833Z,99.99
2018-09-15T00:39:28.835Z,99.99
2018-09-15T00:40:28.831Z,99.99
2018-09-15T00:41:28.830Z,99.99
2018-09-15T00:42:28.827Z,99.99
2018-09-15T00:43:28.829Z,99.99
2018-09-15T00:44:28.824Z,99.99
2018-09-15T00:45:28.824Z,99.99
2018-09-15T00:46:28.822Z,99.99
2018-09-15T00:47:28.825Z,99.99
2018-09-15T00:48:28.822Z,99.99
2018-09-15T00:49:28.817Z,99.99
2018-09-15T00:50:28.816Z,99.99
2018-09-15T00:51:28.813Z,99.99
2018-09-15T00:52:28.811Z,99.99
2018-09-15T00:53:28.808Z,99.99
2018-09-15T00:54:28.810Z,99.99
2018-09-15T00:55:28.806Z,99.99
2018-09-15T00:56:28.803Z,99.99
2018-09-15T00:57:28.806Z,99.99
2018-09-15T00:58:28.801Z,99.99
2018-09-15T00:59:28.799Z,99.99
2018-09-15T01:00:28.800Z,99.99
2018-09-15T01:01:28.797Z,99.99
2018-09-15T01:02:28.797Z,99.99
2018-09-15T01:03:28.792Z,99.99
2018-09-15T01:04:28.791Z,99.99
2018-09-15T01:05:28.794Z,99.99
2018-09-15T01:06:28.786Z,99.99
2018-09-15T01:07:28.785Z,99.99
2018-09-15T01:08:28.784Z,99.99
2018-09-15T01:09:28.781Z,99.99
2018-09-15T01:10:28.780Z,99.99
2018-09-15T01:11:28.778Z,99.99
2018-09-15T01:12:28.776Z,99.99
2018-09-15T01:13:28.774Z,99.99
2018-09-15T01:14:28.814Z,99.99
2018-09-15T01:15:28.769Z,99.99
2018-09-15T01:16:28.768Z,99.99
2018-09-15T01:17:28.763Z,99.99
2018-09-15T01:18:28.764Z,99.99
2018-09-15T01:19:28.765Z,99.99
2018-09-15T01:20:28.764Z,99.99
2018-09-15T01:21:28.760Z,99.99
2018-09-15T01:22:28.757Z,99.99
2018-09-15T01:23:28.754Z,99.99
2018-09-15T01:24:28.757Z,99.99
2018-09-15T01:25:28.751Z,99.99
2018-09-15T01:26:28.751Z,99.99
2018-09-15T01:27:28.746Z,99.99
2018-09-15T01:28:28.739Z,99.99
2018-09-15T01:29:28.744Z,99.99
2018-09-15T01:30:29.304Z,99.99
2018-09-15T01:31:28.739Z,99.99
2018-09-15T01:32:28.737Z,99.99
2018-09-15T01:33:28.734Z,99.99
2018-09-15T01:34:28.733Z,99.99
2018-09-15T01:35:28.729Z,99.99
2018-09-15T01:36:28.732Z,99.99
2018-09-15T01:37:28.727Z,99.99
2018-09-15T01:38:28.730Z,99.99
2018-09-15T01:39:28.722Z,99.99
2018-09-15T01:40:28.719Z,99.99
2018-09-15T01:41:28.718Z,99.99
2018-09-15T01:42:28.716Z,99.99
2018-09-15T01:43:28.716Z,99.99
2018-09-15T01:44:28.715Z,99.99
2018-09-15T01:45:28.710Z,99.99
2018-09-15T01:46:28.710Z,99.99
2018-09-15T01:47:28.705Z,99.99
2018-09-15T01:48:28.704Z,99.99
2018-09-15T01:49:28.701Z,99.99
2018-09-15T01:50:28.707Z,99.99
2018-09-15T01:51:28.699Z,99.99
2018-09-15T01:52:28.695Z,99.99
2018-09-15T01:53:28.694Z,99.99
2018-09-15T01:54:28.691Z,99.99
2018-09-15T01:55:28.684Z,99.99
2018-09-15T01:56:28.687Z,99.99
2018-09-15T01:57:28.707Z,99.99
2018-09-15T01:58:28.683Z,99.99
2018-09-15T01:59:28.681Z,99.99
2018-09-15T02:00:28.679Z,99.99
2018-09-15T02:01:28.675Z,99.99
2018-09-15T02:02:28.675Z,99.99
2018-09-15T02:03:29.387Z,99.99
2018-09-15T02:04:28.670Z,99.99
2018-09-15T02:05:28.672Z,99.99
2018-09-15T02:06:28.665Z,99.99
2018-09-15T02:07:28.662Z,99.99
2018-09-15T02:08:28.700Z,99.99
2018-09-15T02:09:28.660Z,99.99
2018-09-15T02:10:28.657Z,99.99
2018-09-15T02:11:28.653Z,99.99
2018-09-15T02:12:28.656Z,99.99
2018-09-15T02:13:28.650Z,99.99
2018-09-15T02:14:28.646Z,99.99
2018-09-15T02:15:28.646Z,99.99
2018-09-15T02:16:28.642Z,99.99
2018-09-15T02:17:28.640Z,99.99
2018-09-15T02:18:28.639Z,99.99
2018-09-15T02:19:28.639Z,99.99
2018-09-15T02:20:28.633Z,99.99
2018-09-15T02:21:28.632Z,99.99
2018-09-15T02:22:28.641Z,99.99
2018-09-15T02:23:28.627Z,99.99
2018-09-15T02:24:28.623Z,99.99
2018-09-15T02:25:28.622Z,99.99
2018-09-15T02:26:28.619Z,99.99
2018-09-15T02:27:28.615Z,99.99
2018-09-15T02:28:28.612Z,99.99
2018-09-15T02:29:28.614Z,99.99
2018-09-15T02:30:28.611Z,99.99
2018-09-15T02:31:28.608Z,99.99
2018-09-15T02:32:28.604Z,99.99
2018-09-15T02:33:28.602Z,99.99
2018-09-15T02:34:28.600Z,99.99
2018-09-15T02:35:28.597Z,99.99
2018-09-15T02:36:28.601Z,99.99
2018-09-15T02:37:28.592Z,99.99
2018-09-15T02:38:28.591Z,99.99
2018-09-15T02:39:28.585Z,99.99
2018-09-15T02:40:28.584Z,99.99
2018-09-15T02:41:28.584Z,99.99
2018-09-15T02:42:28.577Z,99.99
2018-09-15T02:43:28.573Z,99.99
2018-09-15T02:44:28.578Z,99.99
2018-09-15T02:45:28.570Z,99.99
2018-09-15T02:46:28.568Z,99.99
2018-09-15T02:47:28.568Z,99.99
2018-09-15T02:48:28.564Z,99.99
2018-09-15T02:49:28.562Z,99.99
2018-09-15T02:50:28.556Z,99.99
2018-09-15T02:51:28.556Z,99.99
2018-09-15T02:52:28.555Z,99.99
2018-09-15T02:53:28.549Z,99.99
2018-09-15T02:54:28.549Z,99.99
2018-09-15T02:55:28.544Z,99.99
2018-09-15T02:56:28.541Z,99.99
2018-09-15T02:57:28.538Z,99.99
2018-09-15T02:58:28.538Z,99.99
2018-09-15T02:59:28.530Z,99.99
2018-09-15T03:00:28.532Z,99.99
2018-09-15T03:01:28.528Z,99.99
2018-09-15T03:02:28.523Z,99.99
2018-09-15T03:03:28.522Z,99.99
2018-09-15T03:04:28.523Z,99.99
2018-09-15T03:05:28.518Z,99.99
2018-09-15T03:06:28.514Z,99.99
2018-09-15T03:07:28.512Z,99.99
2018-09-15T03:08:28.508Z,99.99
2018-09-15T03:09:28.504Z,99.99
2018-09-15T03:10:28.502Z,99.99
2018-09-15T03:11:28.498Z,99.99
2018-09-15T03:12:28.494Z,99.99
2018-09-15T03:13:28.495Z,99.99
2018-09-15T03:14:28.491Z,99.99
2018-09-15T03:15:28.488Z,99.99
2018-09-15T03:16:28.489Z,99.99
2018-09-15T03:17:28.481Z,99.99
2018-09-15T03:18:28.481Z,99.99
2018-09-15T03:19:28.475Z,99.99
2018-09-15T03:20:28.472Z,99.99
2018-09-15T03:21:28.469Z,99.99
2018-09-15T03:22:28.478Z,99.99
2018-09-15T03:23:28.462Z,99.99
2018-09-15T03:24:28.460Z,99.99
2018-09-15T03:25:28.454Z,99.99
2018-09-15T03:26:28.455Z,99.99
2018-09-15T03:27:28.452Z,99.99
2018-09-15T03:28:28.455Z,99.99
2018-09-15T03:29:28.451Z,99.99
2018-09-15T03:30:28.451Z,99.99
2018-09-15T03:31:28.437Z,99.99
2018-09-15T03:32:28.438Z,99.99
2018-09-15T03:33:28.430Z,99.99
2018-09-15T03:34:28.434Z,99.99
2018-09-15T03:35:28.426Z,99.99
2018-09-15T03:36:28.423Z,99.99
2018-09-15T03:37:28.420Z,99.99
2018-09-15T03:38:28.419Z,99.99
2018-09-15T03:39:28.415Z,99.99
2018-09-15T03:40:28.412Z,99.99
2018-09-15T03:41:28.488Z,99.99
2018-09-15T03:42:28.404Z,99.99
2018-09-15T03:43:28.403Z,99.99
2018-09-15T03:44:28.398Z,99.99
2018-09-15T03:45:28.395Z,99.99
2018-09-15T03:46:28.389Z,99.99
2018-09-15T03:47:28.388Z,99.99
2018-09-15T03:48:28.387Z,99.99
2018-09-15T03:49:28.381Z,99.99
2018-09-15T03:50:28.380Z,99.99
2018-09-15T03:51:28.375Z,99.99
2018-09-15T03:52:28.377Z,99.99
2018-09-15T03:53:28.381Z,99.99
2018-09-15T03:54:28.365Z,99.99
2018-09-15T03:55:28.369Z,99.99
2018-09-15T03:56:28.358Z,99.99
2018-09-15T03:57:28.358Z,99.99
2018-09-15T03:58:28.366Z,99.99
2018-09-15T03:59:28.348Z,99.99
2018-09-15T04:00:28.416Z,99.99
2018-09-15T04:01:28.346Z,99.99
2018-09-15T04:02:28.339Z,99.99
2018-09-15T04:03:28.335Z,99.99
2018-09-15T04:04:28.332Z,99.99
2018-09-15T04:05:28.330Z,99.99
2018-09-15T04:06:28.327Z,99.99
2018-09-15T04:07:28.325Z,99.99
2018-09-15T04:08:28.327Z,99.99
2018-09-15T04:09:28.316Z,99.99
2018-09-15T04:10:28.316Z,99.99
2018-09-15T04:11:28.310Z,99.99
2018-09-15T04:12:28.305Z,99.99
2018-09-15T04:13:28.302Z,99.99
2018-09-15T04:14:28.296Z,99.99
2018-09-15T04:15:28.299Z,99.99
2018-09-15T04:16:28.292Z,99.99
2018-09-15T04:17:28.288Z,99.99
2018-09-15T04:18:28.290Z,99.99
2018-09-15T04:19:28.284Z,99.99
2018-09-15T04:20:28.283Z,99.99
2018-09-15T04:21:28.278Z,99.99
2018-09-15T04:22:28.272Z,99.99
2018-09-15T04:23:28.269Z,99.99
2018-09-15T04:24:28.276Z,99.99
2018-09-15T04:25:28.261Z,99.99
2018-09-15T04:26:28.266Z,99.99
2018-09-15T04:27:28.259Z,99.99
2018-09-15T04:28:28.298Z,99.99
2018-09-15T04:29:28.251Z,99.99
2018-09-15T04:30:28.245Z,99.99
2018-09-15T04:31:28.243Z,99.99
2018-09-15T04:32:28.239Z,99.99
2018-09-15T04:33:28.236Z,99.99
2018-09-15T04:34:28.238Z,99.99
2018-09-15T04:35:28.229Z,99.99
2018-09-15T04:36:28.226Z,99.99
2018-09-15T04:37:28.227Z,99.76
2018-09-15T04:38:28.224Z,99.99
2018-09-15T04:39:28.218Z,99.66
2018-09-15T04:40:28.214Z,99.99
2018-09-15T04:41:28.210Z,99.37
2018-09-15T04:42:28.205Z,99.47
2018-09-15T04:43:28.203Z,99.08
2018-09-15T04:44:28.198Z,99.18
2018-09-15T04:45:28.196Z,99.18
2018-09-15T04:46:28.195Z,99.85
2018-09-15T04:47:28.192Z,99.18
2018-09-15T04:48:28.187Z,98.99
2018-09-15T04:49:28.186Z,98.32
2018-09-15T04:50:28.183Z,98.32
2018-09-15T04:51:28.178Z,98.90
2018-09-15T04:52:28.227Z,99.66
2018-09-15T04:53:28.174Z,98.71
2018-09-15T04:54:28.170Z,97.66
2018-09-15T04:55:28.167Z,97.89
2018-09-15T04:56:28.165Z,97.85
2018-09-15T04:57:28.160Z,97.85
2018-09-15T04:58:28.156Z,97.47
2018-09-15T04:59:28.153Z,97.56
2018-09-15T05:00:28.151Z,97.56
2018-09-15T05:01:28.148Z,97.27
2018-09-15T05:02:28.149Z,97.56
2018-09-15T05:03:28.141Z,97.94
2018-09-15T05:04:28.140Z,98.03
2018-09-15T05:05:28.135Z,97.56
2018-09-15T05:06:28.145Z,97.37
2018-09-15T05:07:28.134Z,98.03
2018-09-15T05:08:28.128Z,97.37
2018-09-15T05:09:28.123Z,97.56
2018-09-15T05:10:28.119Z,97.66
2018-09-15T05:11:28.117Z,97.18
2018-09-15T05:12:28.128Z,97.85
2018-09-15T05:13:28.112Z,97.66
2018-09-15T05:14:28.108Z,97.94
2018-09-15T05:15:28.107Z,97.85
2018-09-15T05:16:28.102Z,97.37
2018-09-15T05:17:28.102Z,98.03
2018-09-15T05:18:28.099Z,98.23
2018-09-15T05:19:28.096Z,97.47
2018-09-15T05:20:28.090Z,98.03
2018-09-15T05:21:28.087Z,97.18
2018-09-15T05:22:28.084Z,97.56
2018-09-15T05:23:28.083Z,97.94
2018-09-15T05:24:28.078Z,96.80
2018-09-15T05:25:28.078Z,97.47
2018-09-15T05:26:28.072Z,96.98
2018-09-15T05:27:28.069Z,97.18
2018-09-15T05:28:28.066Z,96.98
2018-09-15T05:29:28.070Z,97.18
2018-09-15T05:30:28.060Z,96.56
2018-09-15T05:31:28.994Z,96.75
2018-09-15T05:32:28.053Z,96.17
2018-09-15T05:33:28.053Z,96.08
2018-09-15T05:34:28.052Z,95.70
2018-09-15T05:35:28.044Z,95.51
2018-09-15T05:36:28.042Z,95.65
2018-09-15T05:37:28.040Z,95.75
2018-09-15T05:38:28.037Z,93.79
2018-09-15T05:39:28.034Z,91.39
2018-09-15T05:40:28.033Z,89.62
2018-09-15T05:41:28.031Z,88.71
2018-09-15T05:42:28.027Z,87.47
2018-09-15T05:43:28.025Z,86.99
2018-09-15T05:44:28.022Z,86.41
2018-09-15T05:45:28.023Z,85.84
2018-09-15T05:46:28.017Z,86.90
2018-09-15T05:47:28.016Z,88.09
2018-09-15T05:48:28.012Z,88.38
2018-09-15T05:49:28.016Z,88.09
2018-09-15T05:50:28.006Z,88.67
2018-09-15T05:51:28.005Z,89.29
2018-09-15T05:52:28.005Z,89.87
2018-09-15T05:53:28.001Z,90.06
2018-09-15T05:54:27.998Z,90.16
2018-09-15T05:55:27.997Z,90.73
2018-09-15T05:56:27.991Z,90.53
2018-09-15T05:57:27.987Z,90.16
2018-09-15T05:58:27.990Z,89.96
2018-09-15T05:59:27.985Z,90.63
2018-09-15T06:00:27.998Z,91.78
2018-09-15T06:01:27.994Z,90.73
2018-09-15T06:02:27.978Z,90.34
2018-09-15T06:03:27.974Z,91.49
2018-09-15T06:04:27.979Z,91.78
2018-09-15T06:05:28.879Z,91.39
2018-09-15T06:06:27.971Z,91.25
2018-09-15T06:07:27.971Z,92.07
2018-09-15T06:08:27.963Z,91.59
2018-09-15T06:09:27.962Z,91.68
2018-09-15T06:10:27.959Z,91.68
2018-09-15T06:11:27.952Z,90.53
2018-09-15T06:12:27.954Z,90.16
2018-09-15T06:13:27.961Z,89.87
2018-09-15T06:14:27.951Z,89.77
2018-09-15T06:15:27.953Z,89.87
2018-09-15T06:16:27.947Z,89.10
2018-09-15T06:17:27.948Z,89.39
2018-09-15T06:18:27.942Z,89.29
2018-09-15T06:19:27.939Z,89.77
2018-09-15T06:20:27.936Z,89.87
2018-09-15T06:21:27.939Z,89.39
2018-09-15T06:22:27.936Z,89.29
2018-09-15T06:23:27.929Z,89.39
2018-09-15T06:24:27.925Z,89.58
2018-09-15T06:25:27.927Z,89.39
2018-09-15T06:26:27.922Z,88.43
2018-09-15T06:27:27.920Z,88.91
2018-09-15T06:28:27.920Z,88.04
2018-09-15T06:29:27.917Z,85.31
2018-09-15T06:30:27.915Z,83.09
2018-09-15T06:31:27.915Z,80.30
2018-09-15T06:32:27.910Z,78.03
2018-09-15T06:33:27.908Z,76.34
2018-09-15T06:34:27.906Z,73.69
2018-09-15T06:35:27.914Z,73.35
2018-09-15T06:36:27.905Z,72.13
2018-09-15T06:37:27.902Z,70.15
2018-09-15T06:38:27.902Z,69.28
2018-09-15T06:39:27.978Z,68.13
2018-09-15T06:40:27.899Z,67.87
2018-09-15T06:41:27.900Z,67.42
2018-09-15T06:42:27.913Z,65.91
2018-09-15T06:43:27.899Z,64.86
2018-09-15T06:44:27.895Z,63.41
2018-09-15T06:45:27.971Z,63.18
2018-09-15T06:46:27.898Z,61.93
2018-09-15T06:47:27.895Z,59.90
2018-09-15T06:48:27.894Z,60.26
2018-09-15T06:49:27.897Z,61.71
2018-09-15T06:50:27.897Z,60.48
2018-09-15T06:51:27.937Z,60.61
2018-09-15T06:52:27.896Z,59.93
2018-09-15T06:53:27.903Z,58.39
2018-09-15T06:54:27.903Z,59.64
2018-09-15T06:55:27.898Z,58.61
2018-09-15T06:56:27.899Z,58.77
2018-09-15T06:57:27.900Z,57.93
2018-09-15T06:58:27.902Z,58.25
2018-09-15T06:59:27.896Z,56.94
2018-09-15T07:00:27.900Z,58.19
2018-09-15T07:01:27.901Z,57.90
2018-09-15T07:02:27.904Z,58.75
2018-09-15T07:03:27.904Z,58.65
2018-09-15T07:04:27.906Z,59.13
2018-09-15T07:05:27.904Z,58.36
2018-09-15T07:06:27.908Z,58.36
2018-09-15T07:07:27.907Z,58.45
2018-09-15T07:08:27.912Z,59.10
2018-09-15T07:09:27.912Z,59.78
2018-09-15T07:10:27.914Z,59.75
2018-09-15T07:11:27.915Z,60.87
2018-09-15T07:12:27.914Z,63.12
2018-09-15T07:13:27.916Z,64.08
2018-09-15T07:14:27.916Z,65.11
2018-09-15T07:15:27.917Z,67.29
2018-09-15T07:16:27.930Z,68.06
2018-09-15T07:17:27.919Z,68.25
2018-09-15T07:18:27.921Z,68.02
2018-09-15T07:19:27.919Z,69.34
2018-09-15T07:20:27.926Z,70.49
2018-09-15T07:21:27.926Z,70.55
2018-09-15T07:22:27.918Z,71.41
2018-09-15T07:23:27.921Z,73.10
2018-09-15T07:24:27.923Z,73.39
2018-09-15T07:25:27.923Z,74.06
2018-09-15T07:26:27.928Z,74.73
2018-09-15T07:27:27.923Z,75.65
2018-09-15T07:28:27.924Z,74.31
2018-09-15T07:29:27.924Z,74.41
2018-09-15T07:30:27.924Z,74.60
2018-09-15T07:31:27.937Z,75.46
2018-09-15T07:32:27.924Z,75.37
2018-09-15T07:33:27.921Z,75.46
2018-09-15T07:34:27.922Z,75.56
2018-09-15T07:35:27.927Z,74.89
2018-09-15T07:36:27.930Z,75.08
2018-09-15T07:37:27.978Z,75.85
2018-09-15T07:38:27.924Z,75.46
2018-09-15T07:39:27.920Z,75.75
2018-09-15T07:40:27.921Z,76.14
2018-09-15T07:41:27.922Z,76.14
2018-09-15T07:42:27.921Z,76.32
2018-09-15T07:43:27.919Z,75.95
2018-09-15T07:44:27.921Z,76.04
2018-09-15T07:45:27.919Z,75.65
2018-09-15T07:46:27.920Z,76.23
2018-09-15T07:47:27.918Z,76.14
2018-09-15T07:48:27.916Z,75.18
2018-09-15T07:49:27.916Z,75.65
2018-09-15T07:50:27.919Z,75.37
2018-09-15T07:51:28.519Z,76.23
2018-09-15T07:52:27.911Z,75.37
2018-09-15T07:53:27.912Z,76.14
2018-09-15T07:54:27.912Z,76.04
2018-09-15T07:55:27.912Z,75.56
2018-09-15T07:56:27.910Z,75.75
2018-09-15T07:57:27.941Z,76.23
2018-09-15T07:58:28.412Z,75.75
2018-09-15T07:59:27.907Z,75.95
2018-09-15T08:00:27.907Z,75.37
2018-09-15T08:01:27.906Z,75.56
2018-09-15T08:02:27.906Z,74.98
2018-09-15T08:03:27.904Z,74.98
2018-09-15T08:04:27.904Z,75.37
2018-09-15T08:05:27.903Z,74.89
2018-09-15T08:06:27.902Z,75.56
2018-09-15T08:07:27.900Z,75.70
2018-09-15T08:08:27.902Z,75.08
2018-09-15T08:09:27.900Z,75.12
2018-09-15T08:10:27.900Z,75.31
2018-09-15T08:11:28.487Z,75.12
2018-09-15T08:12:27.927Z,74.26
2018-09-15T08:13:27.897Z,74.54
2018-09-15T08:14:27.898Z,74.64
2018-09-15T08:15:27.894Z,74.06
2018-09-15T08:16:27.893Z,73.77
2018-09-15T08:17:27.897Z,74.26
2018-09-15T08:18:27.889Z,74.54
2018-09-15T08:19:27.894Z,73.87
2018-09-15T08:20:27.892Z,73.58
2018-09-15T08:21:27.891Z,72.81
2018-09-15T08:22:27.892Z,72.91
2018-09-15T08:23:27.894Z,73.10
2018-09-15T08:24:27.889Z,72.63
2018-09-15T08:25:27.888Z,73.20
2018-09-15T08:26:27.980Z,73.30
2018-09-15T08:27:27.902Z,73.49
2018-09-15T08:28:27.884Z,73.97
2018-09-15T08:29:27.882Z,73.58
2018-09-15T08:30:27.885Z,73.39
2018-09-15T08:31:27.881Z,73.58
2018-09-15T08:32:27.883Z,73.20
2018-09-15T08:33:27.881Z,73.10
2018-09-15T08:34:27.888Z,73.00
2018-09-15T08:35:27.879Z,73.04
2018-09-15T08:36:28.422Z,72.47
2018-09-15T08:37:27.885Z,71.61
2018-09-15T08:38:27.883Z,71.03
2018-09-15T08:39:27.876Z,70.64
2018-09-15T08:40:27.876Z,71.03
2018-09-15T08:41:27.922Z,71.03
2018-09-15T08:42:27.875Z,71.51
2018-09-15T08:43:27.874Z,71.31
2018-09-15T08:44:27.873Z,71.22
2018-09-15T08:45:27.872Z,70.55
2018-09-15T08:46:27.873Z,70.45
2018-09-15T08:47:27.869Z,71.12
2018-09-15T08:48:27.869Z,70.45
2018-09-15T08:49:27.870Z,70.42
2018-09-15T08:50:27.873Z,70.84
2018-09-15T08:51:27.867Z,71.51
2018-09-15T08:52:27.867Z,71.41
2018-09-15T08:53:27.868Z,71.70
2018-09-15T08:54:27.869Z,71.89
2018-09-15T08:55:28.430Z,71.22
2018-09-15T08:56:27.866Z,71.12
2018-09-15T08:57:27.863Z,71.12
2018-09-15T08:58:27.865Z,71.12
2018-09-15T08:59:27.861Z,72.08
2018-09-15T09:00:27.861Z,71.89
2018-09-15T09:01:27.861Z,72.85
2018-09-15T09:02:27.863Z,72.02
2018-09-15T09:03:27.864Z,72.02
2018-09-15T09:04:27.859Z,71.25
2018-09-15T09:05:27.859Z,70.97
2018-09-15T09:06:27.858Z,71.83
2018-09-15T09:07:27.858Z,71.73
2018-09-15T09:08:27.856Z,71.35
2018-09-15T09:09:27.855Z,70.87
2018-09-15T09:10:27.853Z,71.06
2018-09-15T09:11:27.859Z,71.48
2018-09-15T09:12:27.854Z,70.97
2018-09-15T09:13:27.853Z,71.19
2018-09-15T09:14:27.854Z,71.10
2018-09-15T09:15:27.852Z,71.19
2018-09-15T09:16:28.436Z,71.39
2018-09-15T09:17:27.852Z,71.19
2018-09-15T09:18:27.852Z,71.19
2018-09-15T09:19:27.895Z,70.33
2018-09-15T09:20:27.851Z,69.66
2018-09-15T09:21:27.852Z,69.50
2018-09-15T09:22:27.852Z,69.75
2018-09-15T09:23:27.861Z,68.31
2018-09-15T09:24:27.851Z,69.46
2018-09-15T09:25:27.853Z,69.75
2018-09-15T09:26:27.923Z,68.79
2018-09-15T09:27:27.850Z,69.18
2018-09-15T09:28:28.438Z,69.18
2018-09-15T09:29:27.850Z,69.46
2018-09-15T09:30:28.441Z,70.23
2018-09-15T09:31:27.847Z,70.62
2018-09-15T09:32:27.942Z,68.70
2018-09-15T09:33:27.854Z,69.75
2018-09-15T09:34:27.849Z,69.27
2018-09-15T09:35:27.849Z,69.89
2018-09-15T09:36:27.848Z,68.15
2018-09-15T09:37:27.846Z,69.31
2018-09-15T09:38:27.953Z,68.15
2018-09-15T09:39:27.849Z,68.54
2018-09-15T09:40:27.851Z,68.73
2018-09-15T09:41:27.913Z,69.15
2018-09-15T09:42:27.850Z,67.13
2018-09-15T09:43:27.853Z,67.10
2018-09-15T09:44:27.852Z,68.38
2018-09-15T09:45:27.849Z,67.10
2018-09-15T09:46:27.854Z,68.06
2018-09-15T09:47:27.852Z,67.19
2018-09-15T09:48:27.850Z,67.13
2018-09-15T09:49:27.857Z,67.13
2018-09-15T09:50:27.854Z,68.09
2018-09-15T09:51:27.851Z,66.55
2018-09-15T09:52:27.851Z,66.65
2018-09-15T09:53:27.851Z,66.46
2018-09-15T09:54:27.852Z,65.88
2018-09-15T09:55:27.849Z,66.49
2018-09-15T09:56:27.855Z,65.59
2018-09-15T09:57:27.854Z,66.07
2018-09-15T09:58:27.856Z,66.30
2018-09-15T09:59:27.851Z,67.26
2018-09-15T10:00:27.854Z,65.72
2018-09-15T10:01:27.854Z,64.95
2018-09-15T10:02:27.855Z,66.10
2018-09-15T10:03:27.854Z,65.24
2018-09-15T10:04:27.856Z,64.86
2018-09-15T10:05:27.853Z,65.24
2018-09-15T10:06:27.859Z,65.05
2018-09-15T10:07:27.855Z,64.86
2018-09-15T10:08:27.855Z,65.24
2018-09-15T10:09:27.859Z,64.69
2018-09-15T10:10:27.866Z,64.98
2018-09-15T10:11:27.857Z,64.89
2018-09-15T10:12:27.858Z,65.27
2018-09-15T10:13:27.859Z,64.95
2018-09-15T10:14:27.860Z,64.76
2018-09-15T10:15:27.859Z,65.33
2018-09-15T10:16:27.856Z,64.86
2018-09-15T10:17:27.860Z,64.66
2018-09-15T10:18:27.866Z,65.05
2018-09-15T10:19:27.862Z,65.43
2018-09-15T10:20:27.863Z,64.95
2018-09-15T10:21:27.875Z,65.14
2018-09-15T10:22:27.864Z,65.24
2018-09-15T10:23:27.865Z,65.27
2018-09-15T10:24:27.864Z,65.08
2018-09-15T10:25:27.872Z,64.89
2018-09-15T10:26:27.867Z,64.43
2018-09-15T10:27:27.869Z,63.28
2018-09-15T10:28:27.868Z,63.38
2018-09-15T10:29:27.869Z,63.09
2018-09-15T10:30:27.870Z,62.03
2018-09-15T10:31:27.870Z,62.03
2018-09-15T10:32:27.872Z,61.96
2018-09-15T10:33:27.872Z,61.38
2018-09-15T10:34:27.871Z,61.77
2018-09-15T10:35:28.461Z,61.96
2018-09-15T10:36:27.874Z,61.29
2018-09-15T10:37:27.883Z,60.90
2018-09-15T10:38:27.942Z,61.16
2018-09-15T10:39:27.877Z,60.30
2018-09-15T10:40:27.961Z,60.97
2018-09-15T10:41:27.880Z,61.16
2018-09-15T10:42:27.884Z,61.35
2018-09-15T10:43:27.882Z,61.93
2018-09-15T10:44:27.884Z,61.35
2018-09-15T10:45:27.885Z,61.45
2018-09-15T10:46:27.884Z,62.15
2018-09-15T10:47:27.887Z,61.68
2018-09-15T10:48:27.888Z,61.87
2018-09-15T10:49:27.889Z,61.10
2018-09-15T10:50:27.889Z,60.71
2018-09-15T10:51:27.890Z,61.07
2018-09-15T10:52:28.545Z,60.97
2018-09-15T10:53:27.917Z,61.07
2018-09-15T10:54:27.896Z,61.55
2018-09-15T10:55:27.897Z,61.74
2018-09-15T10:56:27.899Z,61.96
2018-09-15T10:57:27.901Z,62.93
2018-09-15T10:58:28.468Z,61.58
2018-09-15T10:59:27.900Z,61.77
2018-09-15T11:00:27.971Z,60.61
2018-09-15T11:01:27.903Z,60.39
2018-09-15T11:02:27.909Z,61.68
2018-09-15T11:03:27.908Z,60.52
2018-09-15T11:04:27.909Z,60.97
2018-09-15T11:05:27.907Z,61.77
2018-09-15T11:06:27.912Z,61.96
2018-09-15T11:07:27.912Z,61.87
2018-09-15T11:08:27.913Z,61.51
2018-09-15T11:09:27.912Z,60.74
2018-09-15T11:10:27.915Z,60.00
2018-09-15T11:11:27.915Z,60.26
2018-09-15T11:12:27.917Z,58.81
2018-09-15T11:13:28.005Z,59.78
2018-09-15T11:14:27.921Z,60.35
2018-09-15T11:15:27.924Z,60.45
2018-09-15T11:16:27.922Z,59.97
2018-09-15T11:17:27.924Z,60.35
2018-09-15T11:18:27.933Z,60.16
2018-09-15T11:19:27.926Z,60.06
2018-09-15T11:20:27.931Z,59.97
2018-09-15T11:21:27.925Z,59.94
2018-09-15T11:22:27.992Z,60.42
2018-09-15T11:23:27.934Z,60.80
2018-09-15T11:24:27.934Z,60.35
2018-09-15T11:25:27.937Z,59.75
2018-09-15T11:26:27.939Z,59.65
2018-09-15T11:27:27.938Z,60.32
2018-09-15T11:28:27.970Z,60.35
2018-09-15T11:29:27.943Z,60.16
2018-09-15T11:30:27.942Z,60.23
2018-09-15T11:31:27.947Z,60.71
2018-09-15T11:32:27.946Z,60.42
2018-09-15T11:33:27.948Z,60.23
2018-09-15T11:34:27.955Z,60.55
2018-09-15T11:35:27.958Z,60.64
2018-09-15T11:36:27.954Z,60.74
2018-09-15T11:37:27.956Z,59.78
2018-09-15T11:38:27.958Z,59.78
2018-09-15T11:39:27.959Z,60.06
2018-09-15T11:40:27.963Z,60.16
2018-09-15T11:41:27.962Z,59.48
2018-09-15T11:42:27.992Z,59.78
2018-09-15T11:43:28.009Z,59.00
2018-09-15T11:44:27.964Z,59.39
2018-09-15T11:45:27.968Z,59.48
2018-09-15T11:46:27.971Z,58.81
2018-09-15T11:47:28.482Z,58.75
2018-09-15T11:48:27.972Z,58.17
2018-09-15T11:49:27.976Z,57.97
2018-09-15T11:50:27.976Z,58.04
2018-09-15T11:51:27.983Z,57.75
2018-09-15T11:52:27.980Z,58.23
2018-09-15T11:53:27.983Z,57.43
2018-09-15T11:54:27.985Z,58.14
2018-09-15T11:55:27.986Z,57.82
2018-09-15T11:56:28.015Z,58.59
2018-09-15T11:57:27.989Z,58.78
2018-09-15T11:58:27.991Z,58.78
2018-09-15T11:59:27.993Z,58.88
2018-09-15T12:00:27.997Z,59.84
2018-09-15T12:01:27.995Z,59.84
2018-09-15T12:02:27.998Z,60.32
2018-09-15T12:03:27.995Z,60.42
2018-09-15T12:04:27.999Z,60.32
2018-09-15T12:05:28.003Z,60.42
2018-09-15T12:06:28.003Z,60.45
2018-09-15T12:07:28.005Z,60.35
2018-09-15T12:08:28.491Z,60.45
2018-09-15T12:09:28.009Z,59.97
2018-09-15T12:10:28.009Z,59.48
2018-09-15T12:11:28.012Z,59.97
2018-09-15T12:12:28.014Z,59.58
2018-09-15T12:13:28.015Z,59.10
2018-09-15T12:14:28.017Z,59.68
2018-09-15T12:15:28.021Z,59.78
2018-09-15T12:16:29.497Z,59.68
2018-09-15T12:17:28.021Z,59.78
2018-09-15T12:18:28.024Z,59.58
2018-09-15T12:19:28.028Z,59.71
2018-09-15T12:20:28.028Z,59.87
2018-09-15T12:21:28.070Z,59.10
2018-09-15T12:22:28.032Z,59.42
2018-09-15T12:23:28.037Z,59.90
2018-09-15T12:24:28.032Z,60.00
2018-09-15T12:25:28.037Z,57.90
2018-09-15T12:26:28.038Z,57.97
2018-09-15T12:27:28.038Z,57.78
2018-09-15T12:28:28.043Z,57.04
2018-09-15T12:29:28.045Z,58.29
2018-09-15T12:30:28.045Z,56.94
2018-09-15T12:31:28.052Z,57.04
2018-09-15T12:32:28.051Z,56.65
2018-09-15T12:33:28.062Z,56.46
2018-09-15T12:34:28.055Z,56.94
2018-09-15T12:35:28.060Z,57.04
2018-09-15T12:36:28.059Z,56.74
2018-09-15T12:37:28.061Z,56.39
2018-09-15T12:38:28.060Z,55.81
2018-09-15T12:39:28.106Z,56.07
2018-09-15T12:40:28.064Z,56.84
2018-09-15T12:41:28.068Z,55.18
2018-09-15T12:42:28.069Z,55.56
2018-09-15T12:43:28.069Z,55.63
2018-09-15T12:44:28.071Z,56.21
2018-09-15T12:45:28.074Z,56.98
2018-09-15T12:46:28.078Z,57.75
2018-09-15T12:47:28.079Z,57.65
2018-09-15T12:48:28.080Z,56.69
2018-09-15T12:49:28.085Z,56.88
2018-09-15T12:50:28.090Z,56.79
2018-09-15T12:51:28.086Z,57.17
2018-09-15T12:52:28.167Z,57.75